sensor_id;sensor_type;location;lat;lon;timestamp;pressure;altitude;pressure_sealevel;temperature;humidity
9521;BME280;4798;41.574;23.734;2024-03-02T00:02:00;94801.03;;;10.90;100.00
9521;BME280;4798;41.574;23.734;2024-03-02T00:04:28;94804.84;;;11.02;100.00
9521;BME280;4798;41.574;23.734;2024-03-02T00:06:57;94797.84;;;11.11;100.00
9521;BME280;4798;41.574;23.734;2024-03-02T00:09:25;94799.06;;;11.19;100.00
9521;BME280;4798;41.574;23.734;2024-03-02T00:11:54;94801.88;;;11.27;100.00
9521;BME280;4798;41.574;23.734;2024-03-02T00:14:23;94798.53;;;11.40;100.00
9521;BME280;4798;41.574;23.734;2024-03-02T00:16:52;94796.84;;;11.44;100.00
9521;BME280;4798;41.574;23.734;2024-03-02T00:19:25;94791.75;;;11.29;100.00
9521;BME280;4798;41.574;23.734;2024-03-02T00:21:54;94791.56;;;11.44;100.00
9521;BME280;4798;41.574;23.734;2024-03-02T00:24:31;94794.28;;;11.39;100.00
9521;BME280;4798;41.574;23.734;2024-03-02T00:27:01;94757.81;;;10.89;100.00
9521;BME280;4798;41.574;23.734;2024-03-02T00:29:32;94800.28;;;11.08;100.00
9521;BME280;4798;41.574;23.734;2024-03-02T00:32:01;94810.16;;;10.78;100.00
9521;BME280;4798;41.574;23.734;2024-03-02T00:34:31;94804.06;;;11.02;100.00
9521;BME280;4798;41.574;23.734;2024-03-02T00:37:00;94799.09;;;10.95;100.00
9521;BME280;4798;41.574;23.734;2024-03-02T00:39:29;94794.69;;;11.09;100.00
9521;BME280;4798;41.574;23.734;2024-03-02T00:41:58;94792.41;;;11.21;100.00
9521;BME280;4798;41.574;23.734;2024-03-02T00:44:27;94790.91;;;11.15;100.00
9521;BME280;4798;41.574;23.734;2024-03-02T00:47:01;94789.19;;;11.24;100.00
9521;BME280;4798;41.574;23.734;2024-03-02T00:49:31;94787.53;;;11.28;100.00
9521;BME280;4798;41.574;23.734;2024-03-02T00:52:00;94777.88;;;11.37;100.00
9521;BME280;4798;41.574;23.734;2024-03-02T00:54:29;94773.16;;;11.11;100.00
9521;BME280;4798;41.574;23.734;2024-03-02T00:56:58;94774.03;;;11.06;100.00
9521;BME280;4798;41.574;23.734;2024-03-02T00:59:27;94760.28;;;11.04;100.00
9521;BME280;4798;41.574;23.734;2024-03-02T01:01:56;94771.88;;;11.08;100.00
9521;BME280;4798;41.574;23.734;2024-03-02T01:04:25;94733.19;;;11.07;100.00
9521;BME280;4798;41.574;23.734;2024-03-02T01:06:55;94765.41;;;11.38;100.00
9521;BME280;4798;41.574;23.734;2024-03-02T01:09:26;94767.31;;;11.32;100.00
9521;BME280;4798;41.574;23.734;2024-03-02T01:11:54;94753.44;;;10.79;100.00
9521;BME280;4798;41.574;23.734;2024-03-02T01:14:23;94763.22;;;11.03;100.00
9521;BME280;4798;41.574;23.734;2024-03-02T01:16:51;94767.22;;;11.19;100.00
9521;BME280;4798;41.574;23.734;2024-03-02T01:19:20;94765.22;;;11.11;100.00
9521;BME280;4798;41.574;23.734;2024-03-02T01:21:49;94760.16;;;10.91;100.00
9521;BME280;4798;41.574;23.734;2024-03-02T01:24:20;94757.78;;;11.13;100.00
9521;BME280;4798;41.574;23.734;2024-03-02T01:26:48;94687.56;;;10.68;100.00
9521;BME280;4798;41.574;23.734;2024-03-02T01:29:17;94740.19;;;10.98;100.00
9521;BME280;4798;41.574;23.734;2024-03-02T01:31:46;94750.47;;;11.05;100.00
9521;BME280;4798;41.574;23.734;2024-03-02T01:34:14;94748.31;;;11.07;100.00
9521;BME280;4798;41.574;23.734;2024-03-02T01:36:43;94733.47;;;11.24;100.00
9521;BME280;4798;41.574;23.734;2024-03-02T01:39:12;94739.66;;;11.20;100.00
9521;BME280;4798;41.574;23.734;2024-03-02T01:41:42;94734.19;;;11.11;100.00
9521;BME280;4798;41.574;23.734;2024-03-02T01:44:11;94726.22;;;10.93;100.00
9521;BME280;4798;41.574;23.734;2024-03-02T01:46:39;94649.84;;;10.57;100.00
9521;BME280;4798;41.574;23.734;2024-03-02T01:49:08;94728.75;;;11.21;100.00
9521;BME280;4798;41.574;23.734;2024-03-02T01:51:37;94730.69;;;11.34;100.00
9521;BME280;4798;41.574;23.734;2024-03-02T01:54:05;94728.94;;;11.43;100.00
9521;BME280;4798;41.574;23.734;2024-03-02T01:56:34;94721.78;;;11.44;100.00
9521;BME280;4798;41.574;23.734;2024-03-02T01:59:05;94729.16;;;11.47;100.00
9521;BME280;4798;41.574;23.734;2024-03-02T02:01:33;94726.28;;;11.43;100.00
9521;BME280;4798;41.574;23.734;2024-03-02T02:04:02;94692.38;;;11.03;100.00
9521;BME280;4798;41.574;23.734;2024-03-02T02:06:31;94733.81;;;10.99;100.00
9521;BME280;4798;41.574;23.734;2024-03-02T02:08:59;94738.19;;;10.90;100.00
9521;BME280;4798;41.574;23.734;2024-03-02T02:11:28;94725.06;;;10.99;100.00
9521;BME280;4798;41.574;23.734;2024-03-02T02:13:57;94726.81;;;11.27;100.00
9521;BME280;4798;41.574;23.734;2024-03-02T02:16:27;94726.66;;;11.37;100.00
9521;BME280;4798;41.574;23.734;2024-03-02T02:18:56;94725.88;;;11.36;100.00
9521;BME280;4798;41.574;23.734;2024-03-02T02:21:26;94730.66;;;11.16;100.00
9521;BME280;4798;41.574;23.734;2024-03-02T02:23:54;94731.16;;;10.99;100.00
9521;BME280;4798;41.574;23.734;2024-03-02T02:26:23;94730.31;;;11.04;100.00
9521;BME280;4798;41.574;23.734;2024-03-02T02:28:51;94721.84;;;11.02;100.00
9521;BME280;4798;41.574;23.734;2024-03-02T02:31:20;94661.38;;;10.43;100.00
9521;BME280;4798;41.574;23.734;2024-03-02T02:33:48;94727.28;;;10.92;100.00
9521;BME280;4798;41.574;23.734;2024-03-02T02:36:17;94727.84;;;10.89;100.00
9521;BME280;4798;41.574;23.734;2024-03-02T02:38:47;94692.34;;;10.24;100.00
9521;BME280;4798;41.574;23.734;2024-03-02T02:41:17;94735.50;;;10.48;100.00
9521;BME280;4798;41.574;23.734;2024-03-02T02:43:45;94695.19;;;10.27;100.00
9521;BME280;4798;41.574;23.734;2024-03-02T02:46:14;94731.03;;;10.19;100.00
9521;BME280;4798;41.574;23.734;2024-03-02T02:48:42;94731.09;;;10.14;100.00
9521;BME280;4798;41.574;23.734;2024-03-02T02:51:11;94732.88;;;10.24;100.00
9521;BME280;4798;41.574;23.734;2024-03-02T02:53:40;94732.16;;;10.13;100.00
9521;BME280;4798;41.574;23.734;2024-03-02T02:56:10;94718.03;;;10.23;100.00
9521;BME280;4798;41.574;23.734;2024-03-02T02:58:40;94650.25;;;9.70;100.00
9521;BME280;4798;41.574;23.734;2024-03-02T03:01:09;94719.22;;;10.07;100.00
9521;BME280;4798;41.574;23.734;2024-03-02T03:03:38;94724.75;;;10.10;100.00
9521;BME280;4798;41.574;23.734;2024-03-02T03:06:06;94726.53;;;10.20;100.00
9521;BME280;4798;41.574;23.734;2024-03-02T03:08:35;94730.44;;;10.28;100.00
9521;BME280;4798;41.574;23.734;2024-03-02T03:11:04;94728.97;;;10.40;100.00
9521;BME280;4798;41.574;23.734;2024-03-02T03:13:34;94727.06;;;10.46;100.00
9521;BME280;4798;41.574;23.734;2024-03-02T03:16:03;94722.00;;;10.68;100.00
9521;BME280;4798;41.574;23.734;2024-03-02T03:18:32;94710.84;;;10.71;100.00
9521;BME280;4798;41.574;23.734;2024-03-02T03:21:01;94721.06;;;11.01;100.00
9521;BME280;4798;41.574;23.734;2024-03-02T03:23:30;94726.78;;;11.08;100.00
9521;BME280;4798;41.574;23.734;2024-03-02T03:25:58;94724.38;;;11.12;100.00
9521;BME280;4798;41.574;23.734;2024-03-02T03:28:27;94722.63;;;11.21;100.00
9521;BME280;4798;41.574;23.734;2024-03-02T03:30:57;94720.44;;;11.28;100.00
9521;BME280;4798;41.574;23.734;2024-03-02T03:33:26;94727.09;;;11.25;100.00
9521;BME280;4798;41.574;23.734;2024-03-02T03:35:55;94725.16;;;11.12;100.00
9521;BME280;4798;41.574;23.734;2024-03-02T03:38:23;94696.06;;;11.07;100.00
9521;BME280;4798;41.574;23.734;2024-03-02T03:40:52;94725.38;;;11.34;100.00
9521;BME280;4798;41.574;23.734;2024-03-02T03:43:20;94675.84;;;10.93;100.00
9521;BME280;4798;41.574;23.734;2024-03-02T03:45:49;94722.63;;;11.21;100.00
9521;BME280;4798;41.574;23.734;2024-03-02T03:48:19;94718.34;;;11.25;100.00
9521;BME280;4798;41.574;23.734;2024-03-02T03:50:47;94725.88;;;10.57;100.00
9521;BME280;4798;41.574;23.734;2024-03-02T03:53:16;94726.25;;;10.69;100.00
9521;BME280;4798;41.574;23.734;2024-03-02T03:55:44;94713.19;;;10.96;100.00
9521;BME280;4798;41.574;23.734;2024-03-02T03:58:16;94723.50;;;11.16;100.00
9521;BME280;4798;41.574;23.734;2024-03-02T04:00:48;94714.41;;;11.22;100.00
9521;BME280;4798;41.574;23.734;2024-03-02T04:03:18;94712.75;;;11.26;100.00
9521;BME280;4798;41.574;23.734;2024-03-02T04:05:47;94718.84;;;11.27;100.00
9521;BME280;4798;41.574;23.734;2024-03-02T04:08:16;94723.28;;;11.31;100.00
9521;BME280;4798;41.574;23.734;2024-03-02T04:10:44;94718.31;;;11.43;100.00
9521;BME280;4798;41.574;23.734;2024-03-02T04:13:13;94727.13;;;10.83;100.00
9521;BME280;4798;41.574;23.734;2024-03-02T04:15:41;94728.16;;;10.63;100.00
9521;BME280;4798;41.574;23.734;2024-03-02T04:18:10;94680.22;;;10.65;100.00
9521;BME280;4798;41.574;23.734;2024-03-02T04:20:40;94723.09;;;10.67;100.00
9521;BME280;4798;41.574;23.734;2024-03-02T04:23:09;94673.00;;;10.23;100.00
9521;BME280;4798;41.574;23.734;2024-03-02T04:25:37;94648.47;;;9.89;100.00
9521;BME280;4798;41.574;23.734;2024-03-02T04:28:06;94719.59;;;10.48;100.00
9521;BME280;4798;41.574;23.734;2024-03-02T04:30:34;94715.69;;;10.22;100.00
9521;BME280;4798;41.574;23.734;2024-03-02T04:33:03;94722.22;;;10.29;100.00
9521;BME280;4798;41.574;23.734;2024-03-02T04:35:34;94688.72;;;10.14;100.00
9521;BME280;4798;41.574;23.734;2024-03-02T04:38:04;94728.56;;;9.99;100.00
9521;BME280;4798;41.574;23.734;2024-03-02T04:40:33;94728.66;;;9.89;100.00
9521;BME280;4798;41.574;23.734;2024-03-02T04:43:01;94665.84;;;9.42;100.00
9521;BME280;4798;41.574;23.734;2024-03-02T04:45:30;94714.19;;;9.48;100.00
9521;BME280;4798;41.574;23.734;2024-03-02T04:47:59;94725.97;;;9.66;100.00
9521;BME280;4798;41.574;23.734;2024-03-02T04:50:28;94722.84;;;9.87;100.00
9521;BME280;4798;41.574;23.734;2024-03-02T04:52:56;94726.13;;;9.74;100.00
9521;BME280;4798;41.574;23.734;2024-03-02T04:55:26;94721.31;;;9.52;100.00
9521;BME280;4798;41.574;23.734;2024-03-02T04:58:23;94732.00;;;9.71;100.00
9521;BME280;4798;41.574;23.734;2024-03-02T05:00:52;94731.28;;;9.89;100.00
9521;BME280;4798;41.574;23.734;2024-03-02T05:03:21;94690.88;;;9.55;100.00
9521;BME280;4798;41.574;23.734;2024-03-02T05:05:49;94727.41;;;9.82;100.00
9521;BME280;4798;41.574;23.734;2024-03-02T05:08:18;94727.34;;;9.87;100.00
9521;BME280;4798;41.574;23.734;2024-03-02T05:10:48;94735.94;;;10.02;100.00
9521;BME280;4798;41.574;23.734;2024-03-02T05:13:16;94739.28;;;10.18;100.00
9521;BME280;4798;41.574;23.734;2024-03-02T05:15:44;94747.13;;;9.94;100.00
9521;BME280;4798;41.574;23.734;2024-03-02T05:18:13;94748.31;;;9.83;100.00
9521;BME280;4798;41.574;23.734;2024-03-02T05:20:42;94751.75;;;9.84;100.00
9521;BME280;4798;41.574;23.734;2024-03-02T05:23:11;94739.28;;;9.84;100.00
9521;BME280;4798;41.574;23.734;2024-03-02T05:25:40;94750.41;;;9.86;100.00
9521;BME280;4798;41.574;23.734;2024-03-02T05:28:10;94748.69;;;10.00;100.00
9521;BME280;4798;41.574;23.734;2024-03-02T05:30:39;94735.97;;;9.74;100.00
9521;BME280;4798;41.574;23.734;2024-03-02T05:33:10;94751.88;;;9.97;100.00
9521;BME280;4798;41.574;23.734;2024-03-02T05:35:39;94747.81;;;9.81;100.00
9521;BME280;4798;41.574;23.734;2024-03-02T05:38:07;94748.97;;;9.99;100.00
9521;BME280;4798;41.574;23.734;2024-03-02T05:40:36;94597.25;;;9.22;100.00
9521;BME280;4798;41.574;23.734;2024-03-02T05:43:05;94748.91;;;10.33;100.00
9521;BME280;4798;41.574;23.734;2024-03-02T05:45:35;94756.09;;;10.32;100.00
9521;BME280;4798;41.574;23.734;2024-03-02T05:48:04;94767.41;;;10.38;100.00
9521;BME280;4798;41.574;23.734;2024-03-02T05:50:33;94761.00;;;10.44;100.00
9521;BME280;4798;41.574;23.734;2024-03-02T05:53:01;94765.78;;;10.42;100.00
9521;BME280;4798;41.574;23.734;2024-03-02T05:55:30;94766.63;;;10.37;100.00
9521;BME280;4798;41.574;23.734;2024-03-02T05:57:59;94769.22;;;10.42;100.00
9521;BME280;4798;41.574;23.734;2024-03-02T06:00:44;94766.72;;;10.27;100.00
9521;BME280;4798;41.574;23.734;2024-03-02T06:03:12;94743.50;;;10.43;100.00
9521;BME280;4798;41.574;23.734;2024-03-02T06:05:41;94768.09;;;10.72;100.00
9521;BME280;4798;41.574;23.734;2024-03-02T06:08:09;94761.16;;;10.76;100.00
9521;BME280;4798;41.574;23.734;2024-03-02T06:10:38;94766.00;;;10.45;100.00
9521;BME280;4798;41.574;23.734;2024-03-02T06:13:07;94770.28;;;10.41;100.00
9521;BME280;4798;41.574;23.734;2024-03-02T06:15:35;94759.25;;;10.34;100.00
9521;BME280;4798;41.574;23.734;2024-03-02T06:18:06;94765.53;;;10.38;100.00
9521;BME280;4798;41.574;23.734;2024-03-02T06:20:35;94773.41;;;10.72;100.00
9521;BME280;4798;41.574;23.734;2024-03-02T06:23:04;94718.28;;;10.27;100.00
9521;BME280;4798;41.574;23.734;2024-03-02T06:25:33;94772.44;;;10.39;100.00
9521;BME280;4798;41.574;23.734;2024-03-02T06:28:02;94752.03;;;10.40;100.00
9521;BME280;4798;41.574;23.734;2024-03-02T06:30:31;94768.22;;;10.62;100.00
9521;BME280;4798;41.574;23.734;2024-03-02T06:33:00;94739.84;;;10.62;100.00
9521;BME280;4798;41.574;23.734;2024-03-02T06:35:32;94762.56;;;10.92;100.00
9521;BME280;4798;41.574;23.734;2024-03-02T06:38:02;94719.69;;;10.85;100.00
9521;BME280;4798;41.574;23.734;2024-03-02T06:40:31;94779.22;;;11.35;100.00
9521;BME280;4798;41.574;23.734;2024-03-02T06:42:59;94771.75;;;11.37;100.00
9521;BME280;4798;41.574;23.734;2024-03-02T06:45:28;94780.72;;;11.41;100.00
9521;BME280;4798;41.574;23.734;2024-03-02T06:47:57;94777.63;;;11.15;100.00
9521;BME280;4798;41.574;23.734;2024-03-02T06:50:26;94777.63;;;11.15;100.00
9521;BME280;4798;41.574;23.734;2024-03-02T06:52:57;94781.28;;;11.19;100.00
9521;BME280;4798;41.574;23.734;2024-03-02T06:55:25;94765.72;;;11.31;100.00
9521;BME280;4798;41.574;23.734;2024-03-02T06:57:54;94776.28;;;11.55;100.00
9521;BME280;4798;41.574;23.734;2024-03-02T07:00:22;94781.44;;;11.46;100.00
9521;BME280;4798;41.574;23.734;2024-03-02T07:02:51;94776.88;;;11.71;100.00
9521;BME280;4798;41.574;23.734;2024-03-02T07:05:20;94781.94;;;11.86;100.00
9521;BME280;4798;41.574;23.734;2024-03-02T07:07:49;94785.03;;;11.56;100.00
9521;BME280;4798;41.574;23.734;2024-03-02T07:10:19;94759.78;;;11.58;100.00
9521;BME280;4798;41.574;23.734;2024-03-02T07:12:48;94769.19;;;11.51;100.00
9521;BME280;4798;41.574;23.734;2024-03-02T07:15:16;94786.97;;;11.50;100.00
9521;BME280;4798;41.574;23.734;2024-03-02T07:18:11;94780.75;;;11.78;100.00
9521;BME280;4798;41.574;23.734;2024-03-02T07:20:40;94783.44;;;11.92;100.00
9521;BME280;4798;41.574;23.734;2024-03-02T07:23:08;94770.38;;;11.95;100.00
9521;BME280;4798;41.574;23.734;2024-03-02T07:25:39;94776.59;;;12.04;100.00
9521;BME280;4798;41.574;23.734;2024-03-02T07:28:11;94785.34;;;11.73;100.00
9521;BME280;4798;41.574;23.734;2024-03-02T07:30:39;94784.38;;;12.01;100.00
9521;BME280;4798;41.574;23.734;2024-03-02T07:33:08;94787.19;;;11.91;100.00
9521;BME280;4798;41.574;23.734;2024-03-02T07:35:37;94783.00;;;12.49;100.00
9521;BME280;4798;41.574;23.734;2024-03-02T07:38:05;94783.09;;;12.44;100.00
9521;BME280;4798;41.574;23.734;2024-03-02T07:40:34;94607.84;;;11.34;100.00
9521;BME280;4798;41.574;23.734;2024-03-02T07:43:04;94742.72;;;12.29;100.00
9521;BME280;4798;41.574;23.734;2024-03-02T07:45:33;94779.06;;;12.88;100.00
9521;BME280;4798;41.574;23.734;2024-03-02T07:48:03;94707.28;;;12.47;99.09
9521;BME280;4798;41.574;23.734;2024-03-02T07:50:32;94789.63;;;12.79;100.00
9521;BME280;4798;41.574;23.734;2024-03-02T07:53:02;94791.09;;;12.71;100.00
9521;BME280;4798;41.574;23.734;2024-03-02T07:55:31;94791.19;;;12.66;100.00
9521;BME280;4798;41.574;23.734;2024-03-02T07:58:00;94799.56;;;12.73;100.00
9521;BME280;4798;41.574;23.734;2024-03-02T08:00:30;94801.31;;;12.78;100.00
9521;BME280;4798;41.574;23.734;2024-03-02T08:03:00;94744.91;;;12.54;99.29
9521;BME280;4798;41.574;23.734;2024-03-02T08:05:29;94793.16;;;12.74;98.47
9521;BME280;4798;41.574;23.734;2024-03-02T08:07:58;94733.88;;;12.47;99.73
9521;BME280;4798;41.574;23.734;2024-03-02T08:10:27;94797.31;;;13.08;100.00
9521;BME280;4798;41.574;23.734;2024-03-02T08:12:55;94757.78;;;12.60;97.11
9521;BME280;4798;41.574;23.734;2024-03-02T08:15:24;94806.25;;;12.85;99.66
9521;BME280;4798;41.574;23.734;2024-03-02T08:17:54;94801.22;;;12.97;100.00
9521;BME280;4798;41.574;23.734;2024-03-02T08:20:23;94805.38;;;13.03;99.94
9521;BME280;4798;41.574;23.734;2024-03-02T08:22:52;94790.91;;;12.95;97.25
9521;BME280;4798;41.574;23.734;2024-03-02T08:25:22;94808.72;;;13.22;98.57
9521;BME280;4798;41.574;23.734;2024-03-02T08:27:50;94806.19;;;13.17;95.39
9521;BME280;4798;41.574;23.734;2024-03-02T08:30:19;94808.09;;;13.38;96.86
9521;BME280;4798;41.574;23.734;2024-03-02T08:32:48;94813.31;;;13.44;94.58
9521;BME280;4798;41.574;23.734;2024-03-02T08:35:18;94804.31;;;13.17;93.03
9521;BME280;4798;41.574;23.734;2024-03-02T08:37:49;94810.69;;;13.30;92.55
9521;BME280;4798;41.574;23.734;2024-03-02T08:40:18;94813.38;;;13.30;91.71
9521;BME280;4798;41.574;23.734;2024-03-02T08:42:47;94807.13;;;13.48;94.60
9521;BME280;4798;41.574;23.734;2024-03-02T08:45:15;94787.00;;;13.42;96.04
9521;BME280;4798;41.574;23.734;2024-03-02T08:47:44;94806.06;;;13.08;92.54
9521;BME280;4798;41.574;23.734;2024-03-02T08:50:13;94758.28;;;12.90;93.02
9521;BME280;4798;41.574;23.734;2024-03-02T08:52:43;94825.06;;;13.02;94.28
9521;BME280;4798;41.574;23.734;2024-03-02T08:55:12;94824.47;;;12.91;100.00
9521;BME280;4798;41.574;23.734;2024-03-02T08:57:41;94735.44;;;12.61;99.67
9521;BME280;4798;41.574;23.734;2024-03-02T09:00:11;94799.56;;;12.87;98.57
9521;BME280;4798;41.574;23.734;2024-03-02T09:02:39;94785.66;;;13.04;100.00
9521;BME280;4798;41.574;23.734;2024-03-02T09:05:08;94806.75;;;13.14;100.00
9521;BME280;4798;41.574;23.734;2024-03-02T09:07:37;94827.47;;;13.17;100.00
9521;BME280;4798;41.574;23.734;2024-03-02T09:10:08;94759.19;;;12.71;100.00
9521;BME280;4798;41.574;23.734;2024-03-02T09:12:37;94800.75;;;12.95;100.00
9521;BME280;4798;41.574;23.734;2024-03-02T09:15:07;94828.16;;;13.09;100.00
9521;BME280;4798;41.574;23.734;2024-03-02T09:17:36;94828.81;;;13.01;100.00
9521;BME280;4798;41.574;23.734;2024-03-02T09:20:05;94828.50;;;12.75;100.00
9521;BME280;4798;41.574;23.734;2024-03-02T09:22:34;94814.16;;;12.90;100.00
9521;BME280;4798;41.574;23.734;2024-03-02T09:25:03;94792.56;;;13.05;100.00
9521;BME280;4798;41.574;23.734;2024-03-02T09:27:33;94820.16;;;13.09;100.00
9521;BME280;4798;41.574;23.734;2024-03-02T09:30:02;94821.63;;;13.01;100.00
9521;BME280;4798;41.574;23.734;2024-03-02T09:32:32;94822.16;;;13.17;100.00
9521;BME280;4798;41.574;23.734;2024-03-02T09:35:00;94821.34;;;13.03;100.00
9521;BME280;4798;41.574;23.734;2024-03-02T09:37:29;94802.63;;;13.35;100.00
9521;BME280;4798;41.574;23.734;2024-03-02T09:39:58;94805.00;;;13.09;100.00
9521;BME280;4798;41.574;23.734;2024-03-02T09:42:28;94817.00;;;13.34;100.00
9521;BME280;4798;41.574;23.734;2024-03-02T09:44:59;94826.88;;;13.20;100.00
9521;BME280;4798;41.574;23.734;2024-03-02T09:47:27;94811.28;;;13.27;100.00
9521;BME280;4798;41.574;23.734;2024-03-02T09:49:56;94807.47;;;13.19;100.00
9521;BME280;4798;41.574;23.734;2024-03-02T09:52:25;94792.28;;;13.20;100.00
9521;BME280;4798;41.574;23.734;2024-03-02T09:54:53;94802.03;;;12.97;100.00
9521;BME280;4798;41.574;23.734;2024-03-02T09:57:22;94811.28;;;12.86;100.00
9521;BME280;4798;41.574;23.734;2024-03-02T09:59:51;94813.25;;;12.81;100.00
9521;BME280;4798;41.574;23.734;2024-03-02T10:02:21;94811.19;;;12.91;100.00
9521;BME280;4798;41.574;23.734;2024-03-02T10:04:50;94807.19;;;13.07;100.00
9521;BME280;4798;41.574;23.734;2024-03-02T10:07:19;94805.09;;;13.18;100.00
9521;BME280;4798;41.574;23.734;2024-03-02T10:09:48;94741.81;;;12.88;100.00
9521;BME280;4798;41.574;23.734;2024-03-02T10:12:19;94777.13;;;13.20;100.00
9521;BME280;4798;41.574;23.734;2024-03-02T10:14:48;94798.69;;;13.68;99.78
9521;BME280;4798;41.574;23.734;2024-03-02T10:17:18;94792.47;;;13.95;100.00
9521;BME280;4798;41.574;23.734;2024-03-02T10:19:48;94794.84;;;14.19;98.78
9521;BME280;4798;41.574;23.734;2024-03-02T10:22:17;94788.91;;;14.44;94.32
9521;BME280;4798;41.574;23.734;2024-03-02T10:24:46;94790.56;;;14.31;95.11
9521;BME280;4798;41.574;23.734;2024-03-02T10:27:23;94755.94;;;14.18;94.31
9521;BME280;4798;41.574;23.734;2024-03-02T10:29:54;94788.47;;;14.28;92.90
9521;BME280;4798;41.574;23.734;2024-03-02T10:32:23;94789.09;;;14.03;96.51
9521;BME280;4798;41.574;23.734;2024-03-02T10:34:54;94755.53;;;13.80;96.34
9521;BME280;4798;41.574;23.734;2024-03-02T10:37:24;94751.84;;;13.67;99.21
9521;BME280;4798;41.574;23.734;2024-03-02T10:39:53;94778.22;;;13.99;97.48
9521;BME280;4798;41.574;23.734;2024-03-02T10:42:22;94784.22;;;13.83;97.19
9521;BME280;4798;41.574;23.734;2024-03-02T10:44:52;94758.16;;;13.93;94.92
9521;BME280;4798;41.574;23.734;2024-03-02T10:47:21;94763.38;;;14.29;91.10
9521;BME280;4798;41.574;23.734;2024-03-02T10:49:52;94772.88;;;14.75;88.63
9521;BME280;4798;41.574;23.734;2024-03-02T10:52:23;94768.34;;;15.40;81.62
9521;BME280;4798;41.574;23.734;2024-03-02T10:54:51;94739.13;;;15.35;79.68
9521;BME280;4798;41.574;23.734;2024-03-02T10:57:21;94761.31;;;16.76;77.57
9521;BME280;4798;41.574;23.734;2024-03-02T10:59:53;94757.03;;;17.42;70.53
9521;BME280;4798;41.574;23.734;2024-03-02T11:02:25;94762.59;;;18.20;66.25
9521;BME280;4798;41.574;23.734;2024-03-02T11:05:00;94753.75;;;18.52;68.46
9521;BME280;4798;41.574;23.734;2024-03-02T11:07:35;94743.97;;;18.92;64.74
9521;BME280;4798;41.574;23.734;2024-03-02T11:10:08;94751.22;;;18.68;65.47
9521;BME280;4798;41.574;23.734;2024-03-02T11:12:39;94743.94;;;18.56;63.24
9521;BME280;4798;41.574;23.734;2024-03-02T11:15:17;94747.56;;;18.96;61.28
9521;BME280;4798;41.574;23.734;2024-03-02T11:17:46;94744.69;;;19.78;61.05
9521;BME280;4798;41.574;23.734;2024-03-02T11:20:18;94736.53;;;19.74;56.47
9521;BME280;4798;41.574;23.734;2024-03-02T11:22:47;94722.69;;;19.60;56.02
9521;BME280;4798;41.574;23.734;2024-03-02T11:25:26;94729.88;;;19.84;55.46
9521;BME280;4798;41.574;23.734;2024-03-02T11:28:02;94711.66;;;20.05;54.87
9521;BME280;4798;41.574;23.734;2024-03-02T11:30:50;94728.97;;;19.92;55.38
9521;BME280;4798;41.574;23.734;2024-03-02T11:33:26;94702.22;;;18.95;57.22
9521;BME280;4798;41.574;23.734;2024-03-02T11:35:58;94728.31;;;19.19;55.33
9521;BME280;4798;41.574;23.734;2024-03-02T11:38:33;94727.19;;;19.08;57.07
9521;BME280;4798;41.574;23.734;2024-03-02T11:41:05;94717.13;;;18.92;56.35
9521;BME280;4798;41.574;23.734;2024-03-02T11:43:37;94724.16;;;18.73;59.39
9521;BME280;4798;41.574;23.734;2024-03-02T11:46:07;94719.81;;;18.68;59.07
9521;BME280;4798;41.574;23.734;2024-03-02T11:48:38;94721.69;;;17.90;59.19
9521;BME280;4798;41.574;23.734;2024-03-02T11:51:09;94709.38;;;18.10;60.69
9521;BME280;4798;41.574;23.734;2024-03-02T11:53:39;94709.81;;;17.58;60.65
9521;BME280;4798;41.574;23.734;2024-03-02T11:56:10;94712.53;;;17.29;61.49
9521;BME280;4798;41.574;23.734;2024-03-02T11:58:40;94720.06;;;17.56;62.89
9521;BME280;4798;41.574;23.734;2024-03-02T12:01:11;94634.47;;;17.39;62.91
9521;BME280;4798;41.574;23.734;2024-03-02T12:03:41;94715.16;;;18.12;62.32
9521;BME280;4798;41.574;23.734;2024-03-02T12:06:11;94714.63;;;18.06;62.01
9521;BME280;4798;41.574;23.734;2024-03-02T12:08:41;94705.19;;;18.00;60.31
9521;BME280;4798;41.574;23.734;2024-03-02T12:11:13;94715.06;;;17.26;61.37
9521;BME280;4798;41.574;23.734;2024-03-02T12:13:52;94712.28;;;17.22;63.85
9521;BME280;4798;41.574;23.734;2024-03-02T12:16:24;94709.97;;;16.83;62.06
9521;BME280;4798;41.574;23.734;2024-03-02T12:18:54;94674.84;;;16.55;63.91
9521;BME280;4798;41.574;23.734;2024-03-02T12:21:24;94708.06;;;16.54;65.06
9521;BME280;4798;41.574;23.734;2024-03-02T12:23:53;94714.41;;;16.79;65.38
9521;BME280;4798;41.574;23.734;2024-03-02T12:26:22;94709.50;;;16.34;67.36
9521;BME280;4798;41.574;23.734;2024-03-02T12:28:51;94713.97;;;16.68;67.32
9521;BME280;4798;41.574;23.734;2024-03-02T12:31:21;94712.09;;;16.69;68.30
9521;BME280;4798;41.574;23.734;2024-03-02T12:33:49;94713.06;;;16.47;69.01
9521;BME280;4798;41.574;23.734;2024-03-02T12:36:18;94673.25;;;16.08;69.57
9521;BME280;4798;41.574;23.734;2024-03-02T12:38:48;94654.72;;;15.94;70.03
9521;BME280;4798;41.574;23.734;2024-03-02T12:41:22;94712.81;;;16.31;71.61
9521;BME280;4798;41.574;23.734;2024-03-02T12:43:51;94703.84;;;16.27;72.65
9521;BME280;4798;41.574;23.734;2024-03-02T12:46:19;94715.50;;;16.31;72.27
9521;BME280;4798;41.574;23.734;2024-03-02T12:48:48;94703.56;;;16.12;71.37
9521;BME280;4798;41.574;23.734;2024-03-02T12:51:17;94678.50;;;15.70;72.98
9521;BME280;4798;41.574;23.734;2024-03-02T12:53:46;94710.88;;;15.85;74.50
9521;BME280;4798;41.574;23.734;2024-03-02T12:56:22;94715.88;;;15.36;79.94
9521;BME280;4798;41.574;23.734;2024-03-02T12:58:53;94721.19;;;15.10;81.39
9521;BME280;4798;41.574;23.734;2024-03-02T13:01:22;94675.31;;;14.91;81.50
9521;BME280;4798;41.574;23.734;2024-03-02T13:03:52;94708.34;;;15.38;81.03
9521;BME280;4798;41.574;23.734;2024-03-02T13:06:22;94717.28;;;15.42;83.33
9521;BME280;4798;41.574;23.734;2024-03-02T13:08:51;94715.41;;;15.34;83.53
9521;BME280;4798;41.574;23.734;2024-03-02T13:11:22;94675.47;;;14.77;84.75
9521;BME280;4798;41.574;23.734;2024-03-02T13:13:51;94718.94;;;14.86;88.09
9521;BME280;4798;41.574;23.734;2024-03-02T13:16:23;94663.63;;;14.22;92.77
9521;BME280;4798;41.574;23.734;2024-03-02T13:19:00;94712.81;;;14.77;94.07